Time;durP1;ratioP1;P1;durP2;ratioP2;P2;SDS_P1;SDS_P2;PMS_P1;PMS_P2;Temp;Humidity;BMP_temperature;BMP_pressure;BME280_temperature;BME280_humidity;BME280_pressure;Samples;Min_cycle;Max_cycle;Signal;HPM_P1;HPM_P2
2023/01/26 00:01:46;;;;;;;54.37;25.73;;;-0.20;99.90;;;;;;4975850;28;20540;-94
2023/01/26 00:04:14;;;;;;;46.97;23.40;;;-0.20;99.90;;;;;;4980259;28;20459;-95
2023/01/26 00:06:42;;;;;;;50.00;25.23;;;-0.20;99.90;;;;;;4977791;28;21112;-96
2023/01/26 00:12:11;;;;;;;46.30;24.10;;;-0.30;99.90;;;;;;5007885;28;20469;-95
2023/01/26 00:14:56;;;;;;;47.40;23.60;;;-0.30;99.90;;;;;;5015306;28;20445;-94
2023/01/26 00:17:30;;;;;;;46.30;23.50;;;-0.30;99.90;;;;;;5015736;28;20449;-95
2023/01/26 00:19:59;;;;;;;47.20;23.27;;;-0.30;99.90;;;;;;5010788;28;21116;-96
2023/01/26 00:22:42;;;;;;;47.47;23.03;;;-0.30;99.90;;;;;;5005067;28;20446;-94
2023/01/26 00:25:12;;;;;;;47.33;24.33;;;-0.30;99.90;;;;;;5009431;28;20458;-95
2023/01/26 00:27:44;;;;;;;46.67;23.70;;;-0.40;99.90;;;;;;5017248;28;20540;-94
2023/01/26 00:30:12;;;;;;;49.10;25.17;;;-0.30;99.90;;;;;;5016700;28;20449;-93
2023/01/26 00:32:41;;;;;;;42.67;23.27;;;-0.30;99.90;;;;;;5016552;28;20472;-95
2023/01/26 00:35:10;;;;;;;43.50;22.87;;;-0.30;99.90;;;;;;5020258;28;20457;-95
2023/01/26 00:37:41;;;;;;;44.80;23.87;;;-0.30;99.90;;;;;;5010435;28;20475;-93
2023/01/26 00:40:11;;;;;;;40.10;21.73;;;-0.30;99.90;;;;;;5016192;28;20538;-94
2023/01/26 00:42:44;;;;;;;48.83;23.37;;;-0.30;99.90;;;;;;5014208;28;20549;-95
2023/01/26 00:45:14;;;;;;;44.93;22.70;;;-0.20;99.90;;;;;;5008870;28;20505;-94
2023/01/26 00:47:43;;;;;;;51.20;23.87;;;-0.20;99.90;;;;;;5011565;28;20462;-96
2023/01/26 00:50:12;;;;;;;42.93;22.03;;;-0.20;99.90;;;;;;5012105;28;20457;-96
2023/01/26 00:52:41;;;;;;;46.40;22.53;;;-0.20;99.90;;;;;;5015910;28;20457;-96
2023/01/26 00:55:09;;;;;;;42.40;22.33;;;-0.20;99.90;;;;;;5014179;28;20525;-95
2023/01/26 01:00:39;;;;;;;45.17;22.20;;;-0.20;99.90;;;;;;5012011;28;20489;-95
2023/01/26 01:03:08;;;;;;;45.30;22.63;;;-0.20;99.90;;;;;;5012060;28;20473;-94
2023/01/26 01:05:36;;;;;;;41.27;21.27;;;-0.20;99.90;;;;;;5011751;28;20568;-94
2023/01/26 01:08:05;;;;;;;41.37;22.27;;;-0.20;99.90;;;;;;5013414;28;20532;-94
2023/01/26 01:10:34;;;;;;;38.27;21.17;;;-0.20;99.90;;;;;;5013228;28;20517;-96
2023/01/26 01:13:02;;;;;;;37.80;21.17;;;-0.20;99.90;;;;;;5014681;28;20485;-93
2023/01/26 01:15:31;;;;;;;37.50;20.20;;;-0.20;99.90;;;;;;5012410;28;20472;-95
2023/01/26 01:18:01;;;;;;;38.20;21.70;;;-0.20;99.90;;;;;;5007080;28;20482;-95
2023/01/26 01:20:43;;;;;;;41.70;21.93;;;-0.20;99.90;;;;;;5013773;28;20513;-96
2023/01/26 01:23:12;;;;;;;43.93;20.63;;;-0.20;99.90;;;;;;5012714;28;20507;-94
2023/01/26 01:25:59;;;;;;;43.23;21.50;;;-0.20;99.90;;;;;;4973780;28;20482;-95
2023/01/26 01:28:29;;;;;;;44.03;21.80;;;-0.20;99.90;;;;;;4974593;28;20470;-95
2023/01/26 01:31:01;;;;;;;42.43;22.10;;;-0.20;99.90;;;;;;4962164;29;20463;-96
2023/01/26 01:33:45;;;;;;;43.07;21.40;;;-0.20;99.90;;;;;;4955727;28;20440;-95
2023/01/26 01:36:15;;;;;;;39.00;22.73;;;-0.20;99.90;;;;;;4974004;28;20464;-96
2023/01/26 01:38:45;;;;;;;35.43;20.73;;;-0.20;99.90;;;;;;4976585;28;20491;-95
2023/01/26 01:44:19;;;;;;;38.67;19.73;;;-0.20;99.90;;;;;;4969474;29;20470;-94
2023/01/26 01:46:55;;;;;;;39.00;20.53;;;-0.20;99.90;;;;;;4978069;29;20467;-94
2023/01/26 01:49:29;;;;;;;41.77;20.67;;;-0.20;99.90;;;;;;4974161;29;20491;-96
2023/01/26 01:52:02;;;;;;;37.00;19.93;;;-0.20;99.90;;;;;;4968244;28;20505;-96
2023/01/26 01:54:34;;;;;;;38.63;21.03;;;-0.20;99.90;;;;;;4973412;28;20467;-93
2023/01/26 01:57:16;;;;;;;40.17;21.23;;;-0.10;99.90;;;;;;4989623;28;20453;-94
2023/01/26 01:59:56;;;;;;;37.50;21.03;;;-0.20;99.90;;;;;;5012756;28;20469;-93
2023/01/26 02:03:09;;;;;;;41.23;21.50;;;-0.20;99.90;;;;;;5008204;28;20489;-94
2023/01/26 02:05:52;;;;;;;43.07;22.27;;;-0.20;99.90;;;;;;5002090;28;20498;-95
2023/01/26 02:08:28;;;;;;;42.73;21.67;;;-0.20;99.90;;;;;;5009129;28;20512;-95
2023/01/26 02:11:02;;;;;;;37.97;20.10;;;-0.10;99.90;;;;;;5005782;28;20450;-94
2023/01/26 02:13:31;;;;;;;40.30;19.57;;;-0.20;99.90;;;;;;5009232;28;20492;-93
2023/01/26 02:16:01;;;;;;;42.67;21.40;;;-0.20;99.90;;;;;;5010703;28;20488;-94
2023/01/26 02:18:44;;;;;;;40.70;22.60;;;-0.20;99.90;;;;;;5007635;28;20474;-94
2023/01/26 02:21:24;;;;;;;34.90;18.77;;;-0.10;99.90;;;;;;4994623;28;20528;-94
2023/01/26 02:24:16;;;;;;;38.13;20.33;;;-0.10;99.90;;;;;;5008501;28;20462;-95
2023/01/26 02:27:00;;;;;;;35.60;19.23;;;-0.10;99.90;;;;;;5012896;28;20469;-94
2023/01/26 02:29:42;;;;;;;42.20;20.97;;;-0.10;99.90;;;;;;5011951;23;20505;-92
2023/01/26 02:35:32;;;;;;;40.77;21.07;;;-0.10;99.90;;;;;;5011566;28;20439;-96
2023/01/26 02:51:32;;;;;;;34.97;18.47;;;-0.10;99.90;;;;;;5745347;22;20526;-93
